Chapel Hill, TN

10:01 AM CST on February 28, 2015 (GMT -0600)
Bett Ray Hill | Change Station
CLOSE
Current Station
Personal Weather Station
Location: Rockvale, TN
Elevation: 758 ft
Nearby Weather Stations

Elev 758 ft 35.72 °N, 86.58 °W | Updated 2 seconds ago

Mostly Cloudy
Mostly Cloudy
34.9 °F
Feels Like 29 °F
N
6.9
Wind Variable Wind from NW
Gusts 8.3 mph

Today
High -- | Low -- °F
--% Chance of Precip.
Yesterday
High -- | Low -- °F
Precip. -- in
6:17 AM 5:40 PM
Waxing Gibbous, 78% visible
Pressure 30.55 in
Visibility 10.0 miles
Clouds Few 8000 ft
Windchill 29 °F
Dew Point -7 °F
Humidity 16%
Rainfall 0.00 in
Snow Depth Not available.
UV 4 out of 12
Pollen 3.60 out of 12
Air Quality Not available.
Flu Activity Not available.
METAR KTHA 281555Z AUTO 00000KT 10SM FEW080 02/M08 A3055 RMK

More Conditions Fewer Conditions

Pressure 30.55 in
Visibility 10.0 miles
Clouds Few 8000 ft
Windchill 29 °F
Dew Point -7 °F
Humidity 16%
Rainfall 0.00 in
Snow Depth Not available.
UV 4 out of 12
Pollen 3.60 out of 12
Air Quality Not available.
Flu Activity Not available.
METAR KTHA 281555Z AUTO 00000KT 10SM FEW080 02/M08 A3055 RMK

More Conditions Fewer Conditions

10-Day Weather Forecast

Almanac

Astronomy

Feb. 28, 2015 Rise Set
Actual Time
Civil Twilight
Nautical Twilight
Astronomical Twilight
Moon
Length of Visible Light
Length of Day
Tomorrow will be .
, % of the Moon is Illuminated

Today's Extremes

State Highs State Lows

Community

WunderPhotos

Upload Photos

1,801,068 photos uploaded!

WunderBlogs® & News

Nearby

Air Quality

  Air Quality AQ Index Pollutant
Not available.

Snow Depth

Station Depth Elevation

Earthquake Activity

City Distance Mag. Time & Date
Minimum magnitude displayed is 2.5.

Coastal Water Temperatures

Place Temperature

Nearby Weather Stations